EDFH/HHN METAR and TAF weather

Enter ICAO airport designator
Station Type Date Time Source
EDFH METAR 2022/09/28 19:20 UTC NOAA

EDFH 281920Z 28008KT 9999 FEW020 08/05 Q1000


Station Type Date Time Source
EDFH Decoded METAR 2022/09/28 19:20 UTC NOAA

Hahn, Germany (EDFH) 49-57N 007-16E 498M
Sep 28, 2022 - 03:20 PM EDT / 2022.09.28 1920 UTC
Wind: from the W (280 degrees) at 9 MPH (8 KT):0
Visibility: greater than 7 mile(s):0
Sky conditions: mostly clear
Temperature: 46 F (8 C)
Dew Point: 41 F (5 C)
Relative Humidity: 81%
Pressure (altimeter): 29.53 in. Hg (1000 hPa)
ob: EDFH 281920Z 28008KT 9999 FEW020 08/05 Q1000
cycle: 19

Station Type Date Time Source
EDFH TAF 2022/09/28 18:27 UTC NOAA

TAF EDFH 281700Z 2818/2918 26004KT 9999 SCT035
BECMG 2900/2902 16005KT
TEMPO 2902/2908 1200 BCFG BKN003 PROB40
TEMPO 2902/2907 0200 FG BKN001 PROB30
TEMPO 2911/2917 SHRA BKN020CB

Example: see airport list